sensor_id;sensor_type;location;lat;lon;timestamp;pressure;altitude;pressure_sealevel;temperature;humidity
48774;BME280;34576;0.000;0.000;2023-04-01T00:01:32;95600.53;;;17.05;65.42
48774;BME280;34576;0.000;0.000;2023-04-01T00:08:32;95583.63;;;17.01;66.21
48774;BME280;34576;0.000;0.000;2023-04-01T00:15:33;95604.00;;;17.06;66.36
48774;BME280;34576;0.000;0.000;2023-04-01T00:22:33;95580.38;;;17.04;66.77
48774;BME280;34576;0.000;0.000;2023-04-01T00:29:34;95570.03;;;17.03;67.09
48774;BME280;34576;0.000;0.000;2023-04-01T00:36:34;95546.13;;;17.03;67.35
48774;BME280;34576;0.000;0.000;2023-04-01T00:43:35;95547.22;;;17.02;67.84
48774;BME280;34576;0.000;0.000;2023-04-01T00:50:35;95564.72;;;17.03;68.12
48774;BME280;34576;0.000;0.000;2023-04-01T00:57:37;95554.47;;;17.10;68.19
48774;BME280;34576;0.000;0.000;2023-04-01T01:04:37;95549.69;;;17.12;68.24
48774;BME280;34576;0.000;0.000;2023-04-01T01:19:47;95527.53;;;17.17;68.77
48774;BME280;34576;0.000;0.000;2023-04-01T01:33:21;95534.41;;;17.18;68.83
48774;BME280;34576;0.000;0.000;2023-04-01T01:40:24;95525.06;;;17.20;69.05
48774;BME280;34576;0.000;0.000;2023-04-01T01:47:26;95535.41;;;17.22;69.71
48774;BME280;34576;0.000;0.000;2023-04-01T01:54:28;95544.94;;;17.23;70.64
48774;BME280;34576;0.000;0.000;2023-04-01T02:01:30;95536.38;;;17.26;71.09
48774;BME280;34576;0.000;0.000;2023-04-01T02:08:45;95542.00;;;17.24;71.11
48774;BME280;34576;0.000;0.000;2023-04-01T02:15:47;95531.84;;;17.27;71.21
48774;BME280;34576;0.000;0.000;2023-04-01T02:22:50;95539.34;;;17.24;71.41
48774;BME280;34576;0.000;0.000;2023-04-01T02:29:51;95542.47;;;17.27;70.91
48774;BME280;34576;0.000;0.000;2023-04-01T02:36:52;95550.34;;;17.32;71.52
48774;BME280;34576;0.000;0.000;2023-04-01T02:43:53;95546.09;;;17.31;71.92
48774;BME280;34576;0.000;0.000;2023-04-01T02:50:55;95546.88;;;17.31;72.31
48774;BME280;34576;0.000;0.000;2023-04-01T02:57:56;95553.00;;;17.32;72.20
48774;BME280;34576;0.000;0.000;2023-04-01T03:04:56;95555.53;;;17.37;72.37
48774;BME280;34576;0.000;0.000;2023-04-01T03:11:56;95540.41;;;17.37;72.29
48774;BME280;34576;0.000;0.000;2023-04-01T03:18:57;95535.38;;;17.36;71.68
48774;BME280;34576;0.000;0.000;2023-04-01T03:25:59;95538.03;;;17.36;72.49
48774;BME280;34576;0.000;0.000;2023-04-01T03:33:00;95563.50;;;17.37;72.53
48774;BME280;34576;0.000;0.000;2023-04-01T03:40:00;95560.38;;;17.35;72.35
48774;BME280;34576;0.000;0.000;2023-04-01T03:47:01;95576.31;;;17.35;73.14
48774;BME280;34576;0.000;0.000;2023-04-01T03:54:02;95563.81;;;17.35;73.29
48774;BME280;34576;0.000;0.000;2023-04-01T04:01:02;95574.16;;;17.37;73.25
48774;BME280;34576;0.000;0.000;2023-04-01T04:08:04;95540.69;;;17.36;73.40
48774;BME280;34576;0.000;0.000;2023-04-01T04:15:05;95541.16;;;17.38;72.92
48774;BME280;34576;0.000;0.000;2023-04-01T04:22:06;95557.91;;;17.38;73.32
48774;BME280;34576;0.000;0.000;2023-04-01T04:29:06;95541.16;;;17.38;73.32
48774;BME280;34576;0.000;0.000;2023-04-01T04:36:07;95545.41;;;17.39;74.10
48774;BME280;34576;0.000;0.000;2023-04-01T04:43:09;95541.94;;;17.38;74.04
48774;BME280;34576;0.000;0.000;2023-04-01T04:50:10;95536.22;;;17.45;74.50
48774;BME280;34576;0.000;0.000;2023-04-01T04:57:13;95530.06;;;17.36;74.86
48774;BME280;34576;0.000;0.000;2023-04-01T05:04:20;95536.16;;;17.36;74.66
48774;BME280;34576;0.000;0.000;2023-04-01T05:11:20;95521.78;;;17.37;75.06
48774;BME280;34576;0.000;0.000;2023-04-01T05:18:21;95515.06;;;17.40;75.13
48774;BME280;34576;0.000;0.000;2023-04-01T05:25:22;95513.50;;;17.39;75.12
48774;BME280;34576;0.000;0.000;2023-04-01T05:32:22;95515.06;;;17.40;75.23
48774;BME280;34576;0.000;0.000;2023-04-01T05:39:23;95522.09;;;17.36;75.33
48774;BME280;34576;0.000;0.000;2023-04-01T05:46:24;95514.91;;;17.36;75.56
48774;BME280;34576;0.000;0.000;2023-04-01T05:53:31;95507.59;;;17.42;75.45
48774;BME280;34576;0.000;0.000;2023-04-01T06:00:31;95530.91;;;17.45;75.43
48774;BME280;34576;0.000;0.000;2023-04-01T06:07:33;95510.25;;;17.42;75.76
48774;BME280;34576;0.000;0.000;2023-04-01T06:14:46;95516.84;;;17.45;75.57
48774;BME280;34576;0.000;0.000;2023-04-01T06:22:37;95516.66;;;17.41;76.04
48774;BME280;34576;0.000;0.000;2023-04-01T06:36:25;95527.78;;;17.43;75.03
48774;BME280;34576;0.000;0.000;2023-04-01T06:58:19;95513.75;;;15.22;59.50
48774;BME280;34576;0.000;0.000;2023-04-01T07:05:20;95511.53;;;14.86;58.55
48774;BME280;34576;0.000;0.000;2023-04-01T07:12:34;95498.41;;;14.52;57.56
48774;BME280;34576;0.000;0.000;2023-04-01T07:20:00;95505.06;;;14.73;56.73
48774;BME280;34576;0.000;0.000;2023-04-01T07:27:04;95502.94;;;14.46;55.93
48774;BME280;34576;0.000;0.000;2023-04-01T07:48:33;95526.00;;;14.45;55.79
48774;BME280;34576;0.000;0.000;2023-04-01T07:55:46;95534.22;;;14.44;55.29
48774;BME280;34576;0.000;0.000;2023-04-01T08:24:43;95555.13;;;14.11;56.24
48774;BME280;34576;0.000;0.000;2023-04-01T08:45:54;95568.72;;;14.87;56.07
48774;BME280;34576;0.000;0.000;2023-04-01T09:00:23;95555.03;;;15.85;56.69
48774;BME280;34576;0.000;0.000;2023-04-01T09:08:36;95554.84;;;16.15;56.86
48774;BME280;34576;0.000;0.000;2023-04-01T09:15:20;95559.69;;;16.27;60.11
48774;BME280;34576;0.000;0.000;2023-04-01T09:36:38;95562.47;;;16.35;61.66
48774;BME280;34576;0.000;0.000;2023-04-01T11:33:02;95631.69;;;16.39;62.97
48774;BME280;34576;0.000;0.000;2023-04-01T11:54:59;95656.94;;;16.36;63.04
48774;BME280;34576;0.000;0.000;2023-04-01T12:30:56;95644.44;;;16.37;63.41
48774;BME280;34576;0.000;0.000;2023-04-01T12:59:58;95646.03;;;16.38;63.42
48774;BME280;34576;0.000;0.000;2023-04-01T13:21:38;95647.81;;;16.43;63.37
48774;BME280;34576;0.000;0.000;2023-04-01T13:43:14;95650.97;;;16.45;63.51
48774;BME280;34576;0.000;0.000;2023-04-01T14:11:56;95616.19;;;16.60;63.53
48774;BME280;34576;0.000;0.000;2023-04-01T14:47:58;95678.50;;;16.49;64.17
48774;BME280;34576;0.000;0.000;2023-04-01T14:54:59;95632.53;;;16.53;64.01
48774;BME280;34576;0.000;0.000;2023-04-01T15:02:22;95638.94;;;16.66;63.68
48774;BME280;34576;0.000;0.000;2023-04-01T15:16:55;95649.69;;;16.75;63.63
48774;BME280;34576;0.000;0.000;2023-04-01T15:24:15;95645.94;;;16.76;63.81
48774;BME280;34576;0.000;0.000;2023-04-01T15:31:21;95636.41;;;16.75;63.78
48774;BME280;34576;0.000;0.000;2023-04-01T15:38:30;95639.84;;;16.76;64.01
48774;BME280;34576;0.000;0.000;2023-04-01T15:45:46;95638.06;;;16.71;63.81
48774;BME280;34576;0.000;0.000;2023-04-01T16:07:18;95666.63;;;16.60;64.48
48774;BME280;34576;0.000;0.000;2023-04-01T16:21:48;95677.97;;;16.66;64.20
48774;BME280;34576;0.000;0.000;2023-04-01T16:36:10;95675.88;;;16.63;64.25
48774;BME280;34576;0.000;0.000;2023-04-01T16:43:19;95680.13;;;16.64;64.21
48774;BME280;34576;0.000;0.000;2023-04-01T16:50:25;95690.53;;;16.60;64.49
48774;BME280;34576;0.000;0.000;2023-04-01T16:57:31;95686.91;;;16.56;64.39
48774;BME280;34576;0.000;0.000;2023-04-01T17:11:42;95690.03;;;16.58;64.25
48774;BME280;34576;0.000;0.000;2023-04-01T17:40:36;95701.03;;;16.51;64.32
48774;BME280;34576;0.000;0.000;2023-04-01T17:47:44;95707.91;;;16.52;64.16
48774;BME280;34576;0.000;0.000;2023-04-01T18:01:58;95711.22;;;16.44;64.48
48774;BME280;34576;0.000;0.000;2023-04-01T18:09:16;95725.31;;;16.45;64.46
48774;BME280;34576;0.000;0.000;2023-04-01T18:23:43;95727.16;;;16.44;64.17
48774;BME280;34576;0.000;0.000;2023-04-01T18:30:50;95745.72;;;16.44;64.31
48774;BME280;34576;0.000;0.000;2023-04-01T18:37:54;95757.94;;;16.45;64.10
48774;BME280;34576;0.000;0.000;2023-04-01T18:44:57;95767.25;;;16.43;64.20
48774;BME280;34576;0.000;0.000;2023-04-01T18:52:03;95777.59;;;16.44;64.10
48774;BME280;34576;0.000;0.000;2023-04-01T18:59:09;95781.53;;;16.47;63.98
48774;BME280;34576;0.000;0.000;2023-04-01T19:06:20;95786.59;;;16.43;64.13
48774;BME280;34576;0.000;0.000;2023-04-01T19:13:24;95799.88;;;16.43;64.05
48774;BME280;34576;0.000;0.000;2023-04-01T19:20:38;95801.47;;;16.44;63.94
48774;BME280;34576;0.000;0.000;2023-04-01T19:27:46;95794.09;;;16.41;63.96
48774;BME280;34576;0.000;0.000;2023-04-01T19:34:51;95792.50;;;16.40;63.89
48774;BME280;34576;0.000;0.000;2023-04-01T19:49:12;95806.88;;;16.39;63.90
48774;BME280;34576;0.000;0.000;2023-04-01T19:56:18;95811.06;;;16.40;64.00
48774;BME280;34576;0.000;0.000;2023-04-01T20:10:29;95827.09;;;16.35;64.00
48774;BME280;34576;0.000;0.000;2023-04-01T20:24:35;95830.81;;;16.34;64.09
48774;BME280;34576;0.000;0.000;2023-04-01T20:32:02;95837.41;;;16.36;63.83
48774;BME280;34576;0.000;0.000;2023-04-01T20:46:22;95845.13;;;16.33;63.96
48774;BME280;34576;0.000;0.000;2023-04-01T21:14:46;95862.59;;;16.39;64.79
48774;BME280;34576;0.000;0.000;2023-04-01T21:36:20;95868.78;;;16.53;66.27
48774;BME280;34576;0.000;0.000;2023-04-01T21:43:30;95874.81;;;16.59;66.96
48774;BME280;34576;0.000;0.000;2023-04-01T21:57:50;95880.34;;;16.63;66.97
48774;BME280;34576;0.000;0.000;2023-04-01T22:12:04;95885.66;;;16.63;67.63
48774;BME280;34576;0.000;0.000;2023-04-01T22:19:17;95886.19;;;16.65;67.95
48774;BME280;34576;0.000;0.000;2023-04-01T22:26:27;95883.94;;;16.72;67.95
48774;BME280;34576;0.000;0.000;2023-04-01T22:48:20;95910.72;;;16.76;68.97
48774;BME280;34576;0.000;0.000;2023-04-01T22:55:25;95912.78;;;16.79;68.63
48774;BME280;34576;0.000;0.000;2023-04-01T23:02:28;95915.44;;;16.79;69.03
48774;BME280;34576;0.000;0.000;2023-04-01T23:09:30;95914.09;;;16.81;68.97
48774;BME280;34576;0.000;0.000;2023-04-01T23:16:32;95917.47;;;16.87;68.68
48774;BME280;34576;0.000;0.000;2023-04-01T23:24:38;95931.50;;;16.93;68.60
48774;BME280;34576;0.000;0.000;2023-04-01T23:38:39;95946.31;;;16.99;68.95
48774;BME280;34576;0.000;0.000;2023-04-01T23:45:41;95938.34;;;16.99;68.92
48774;BME280;34576;0.000;0.000;2023-04-01T23:52:43;95947.31;;;17.03;69.18
48774;BME280;34576;0.000;0.000;2023-04-01T23:59:59;95949.69;;;17.04;69.79
